LYNILWSK

Guest
Details From LYNI - NIS
To LWSK - Skopje
Flight Number -
Tags generated
Created
Modified
Stats Distance 83 nm / 154 km
Max Altitude 3,400 ft / 1,036 m
Waypoints 3
Social Downloads 0
Likes 0
Share VATSIM

Download

Looking for another format? Having issues loading an existing format? Contact us
Advertisement - Login to hide

Notes

Basic altitude profile: - Ascent Rate: 2500ft/min - Ascent Speed: 250kts - Cruise Altitude: 35000ft - Cruise Speed: 420kts - Descent Rate: 1500ft/min - Descent Speed: 250kts Options: - Use NATs: yes - Use PACOTS: yes - Use low airways: yes - Use high airways: yes

Route

LYNI OLOTA LWSK

ID Type Via Altitude Latitude Longitude Leg Dist Tot Dist Heading (true) Name
O LYNI APT - 0 ft / 0 m 43.33675˚ 21.85542˚ - 0 nm - NIS
OLOTA FIX - 3,400 ft / 1,036 m 42.23000˚ 21.61667˚ 67 nm 67 nm 189° / 189° -
O LWSK APT - 0 ft / 0 m 41.96162˚ 21.62137˚ 16 nm 83 nm 179° / 179° Skopje

Altitude Profile

Advertisement - Login to hide

LYNI

Details ICAO LYNI (INI)
Name NIS
Region Serbia and Montenegro
Timezone Europe/Belgrade (UTC+1.0)
Stats Elevation 648 ft / 198 m (AMSL)
Location 43.336748° 21.855417°
Runways 1
Magnetic Variation 4.767° E

METAR

LYNI 161500Z 32017KT 9999 -RA FEW010 BKN027 04/02 Q1009 NOSIG

Decode

TAF

TAF AMD LYNI 160855Z 1609/1706 32010KT 9999 BKN033 TX15/1609Z TN01/1705Z TEMPO 1610/1616 32022G35KT SHRA SCT017 SCT027TCU BKN033 BECMG 1616/1618 4000 RA BKN013 BKN027 BECMG 1702/1704 1500 SN BKN005 OVC020

Decode

Departure Runways

ID Width Length Bearing (true) Bearing (mag) Surface Threshold Offset Overrun Length
11 148 ft / 45 m 8,187 ft / 2,495 m 113.61° 108.84° Asphalt 719 ft / 219 m 0 ft / 0 m
29 148 ft / 45 m 8,187 ft / 2,495 m 293.63° 288.86° Asphalt 985 ft / 300 m 0 ft / 0 m

LWSK

Details ICAO LWSK (SKP)
Name Skopje
Region Macedonia
Timezone Europe/Skopje (UTC+1.0)
Stats Elevation 781 ft / 238 m (AMSL)
Location 41.961619° 21.621372°
Runways 1
Magnetic Variation 4.579° E

METAR

LWSK 161500Z 04012KT 9999 -DZ FEW040 BKN070 11/08 Q1005 NOSIG

Decode

TAF

TAF LWSK 161430Z 1615/1715 02012KT 9999 FEW040 BKN080 TEMPO 1615/1709 RA BKN035 OVC050

Decode

Destination Runways

ID Width Length Bearing (true) Bearing (mag) Surface Threshold Offset Overrun Length
16 140 ft / 43 m 8,036 ft / 2,449 m 165.46° 160.88° Asphalt 0 ft / 0 m 80 ft / 24 m
34 140 ft / 43 m 8,036 ft / 2,449 m 345.47° 340.89° Asphalt 0 ft / 0 m 80 ft / 24 m

Approach Navaids

Runway Type Ident Frequency Range Bearing (true) Bearing (mag) Slope Elevation
34 Localiser MSK 108.70 MHz 25 nm / 46 km 345.00° 340.42° - 764 ft / 233 m (AMSL)
34 Glidescope MSK 108.70 MHz 25 nm / 46 km 345.00° 340.42° 3.30° 813 ft / 248 m (AMSL)
34 DME MSK 108.70 MHz 50 nm / 93 km - - - 758 ft / 231 m (AMSL)